Terminal Aerodrome Forecast
Issued by NWS

Home | Current Version | Previous Version | Text Only | Print | Product List | Glossary On
Versions: 1 2 3 4 5 6 7 8 9 10 11 12 13 14 15
577
FTUS42 KMHX 011739 AAB
TAFPGV
TAF AMD
KPGV 011739Z 0118/0218 21018G28KT P6SM BKN045
     FM020000 21014G25KT P6SM SCT045 SCT200
     FM020500 23016KT P6SM SHRA OVC025
     FM021000 31012KT P6SM BKN150
     FM021400 31012G20KT P6SM FEW250
      AMD LTD TO CLD VIS AND WIND=

USA.gov is the U.S. government's official web portal to all federal, state and local government web resources and services.